Terminal Aerodrome Forecast
Issued by NWS Sterling, VA

Home | Current Version | Previous Version | Text Only | Print | Product List | Glossary On
Versions: 1 2 3 4 5 6 7 8 9 10 11 12
000
FTUS41 KLWX 221100
TAFCHO
TAF
KCHO 221140Z 2212/2312 03004KT P6SM OVC040
     FM221400 03004KT 3SM -FZRAPL OVC025
     FM221700 03005KT 3SM -FZRA OVC015
     FM221900 02005KT 3SM -RA OVC015
     FM222200 01004KT 3SM -RA OVC008
     FM222300 35004KT P6SM OVC008=

USA.gov is the U.S. government's official web portal to all federal, state and local government web resources and services.